sensor_id;sensor_type;location;lat;lon;timestamp;P1;durP1;ratioP1;P2;durP2;ratioP2
74044;SDS011;62389;51.412;5.436;2023-03-01T00:01:20;8.57;;;4.80;;
74044;SDS011;62389;51.412;5.436;2023-03-01T00:03:51;8.05;;;5.25;;
74044;SDS011;62389;51.412;5.436;2023-03-01T00:06:17;7.50;;;5.07;;
74044;SDS011;62389;51.412;5.436;2023-03-01T00:08:43;7.90;;;4.72;;
74044;SDS011;62389;51.412;5.436;2023-03-01T00:11:10;9.80;;;5.15;;
74044;SDS011;62389;51.412;5.436;2023-03-01T00:13:38;7.90;;;5.05;;
74044;SDS011;62389;51.412;5.436;2023-03-01T00:16:05;9.63;;;4.72;;
74044;SDS011;62389;51.412;5.436;2023-03-01T00:18:32;8.98;;;4.93;;
74044;SDS011;62389;51.412;5.436;2023-03-01T00:20:57;9.25;;;4.32;;
74044;SDS011;62389;51.412;5.436;2023-03-01T00:23:23;11.82;;;5.70;;
74044;SDS011;62389;51.412;5.436;2023-03-01T00:25:49;9.48;;;5.25;;
74044;SDS011;62389;51.412;5.436;2023-03-01T00:28:15;7.22;;;4.15;;
74044;SDS011;62389;51.412;5.436;2023-03-01T00:30:41;7.28;;;4.45;;
74044;SDS011;62389;51.412;5.436;2023-03-01T00:33:06;6.88;;;4.40;;
74044;SDS011;62389;51.412;5.436;2023-03-01T00:35:32;7.90;;;4.65;;
74044;SDS011;62389;51.412;5.436;2023-03-01T00:37:58;6.70;;;4.20;;
74044;SDS011;62389;51.412;5.436;2023-03-01T00:40:24;7.28;;;4.47;;
74044;SDS011;62389;51.412;5.436;2023-03-01T00:42:50;8.38;;;4.45;;
74044;SDS011;62389;51.412;5.436;2023-03-01T00:45:16;7.88;;;4.30;;
74044;SDS011;62389;51.412;5.436;2023-03-01T00:47:41;7.80;;;4.30;;
74044;SDS011;62389;51.412;5.436;2023-03-01T00:50:07;8.20;;;4.72;;
74044;SDS011;62389;51.412;5.436;2023-03-01T00:52:33;8.48;;;4.45;;
74044;SDS011;62389;51.412;5.436;2023-03-01T00:54:58;10.98;;;4.72;;
74044;SDS011;62389;51.412;5.436;2023-03-01T00:57:24;8.40;;;4.53;;
74044;SDS011;62389;51.412;5.436;2023-03-01T00:59:49;7.97;;;4.68;;
74044;SDS011;62389;51.412;5.436;2023-03-01T01:02:17;9.38;;;5.07;;
74044;SDS011;62389;51.412;5.436;2023-03-01T01:04:44;10.93;;;5.18;;
74044;SDS011;62389;51.412;5.436;2023-03-01T01:07:10;7.90;;;4.15;;
74044;SDS011;62389;51.412;5.436;2023-03-01T01:09:35;6.45;;;3.97;;
74044;SDS011;62389;51.412;5.436;2023-03-01T01:12:01;9.27;;;4.65;;
74044;SDS011;62389;51.412;5.436;2023-03-01T01:14:27;7.72;;;4.75;;
74044;SDS011;62389;51.412;5.436;2023-03-01T01:16:52;7.82;;;4.68;;
74044;SDS011;62389;51.412;5.436;2023-03-01T01:19:17;7.28;;;4.28;;
74044;SDS011;62389;51.412;5.436;2023-03-01T01:21:43;11.05;;;4.78;;
74044;SDS011;62389;51.412;5.436;2023-03-01T01:24:08;7.45;;;4.05;;
74044;SDS011;62389;51.412;5.436;2023-03-01T01:26:34;8.48;;;4.95;;
74044;SDS011;62389;51.412;5.436;2023-03-01T01:29:00;9.10;;;4.50;;
74044;SDS011;62389;51.412;5.436;2023-03-01T01:31:27;7.15;;;4.15;;
74044;SDS011;62389;51.412;5.436;2023-03-01T01:33:54;9.38;;;4.50;;
74044;SDS011;62389;51.412;5.436;2023-03-01T01:36:20;6.38;;;4.30;;
74044;SDS011;62389;51.412;5.436;2023-03-01T01:38:46;7.25;;;4.55;;
74044;SDS011;62389;51.412;5.436;2023-03-01T01:41:12;8.57;;;4.47;;
74044;SDS011;62389;51.412;5.436;2023-03-01T01:43:39;7.95;;;4.40;;
74044;SDS011;62389;51.412;5.436;2023-03-01T01:46:12;9.73;;;4.90;;
74044;SDS011;62389;51.412;5.436;2023-03-01T01:48:44;8.13;;;4.22;;
74044;SDS011;62389;51.412;5.436;2023-03-01T01:51:17;7.50;;;4.28;;
74044;SDS011;62389;51.412;5.436;2023-03-01T01:56:16;7.22;;;4.72;;
74044;SDS011;62389;51.412;5.436;2023-03-01T01:58:43;7.75;;;4.28;;
74044;SDS011;62389;51.412;5.436;2023-03-01T02:01:10;7.70;;;4.55;;
74044;SDS011;62389;51.412;5.436;2023-03-01T02:03:37;6.25;;;3.90;;
74044;SDS011;62389;51.412;5.436;2023-03-01T02:06:11;6.75;;;4.10;;
74044;SDS011;62389;51.412;5.436;2023-03-01T02:08:53;7.22;;;4.40;;
74044;SDS011;62389;51.412;5.436;2023-03-01T02:11:24;8.60;;;4.28;;
74044;SDS011;62389;51.412;5.436;2023-03-01T02:13:50;7.65;;;4.63;;
74044;SDS011;62389;51.412;5.436;2023-03-01T02:16:18;8.30;;;4.30;;
74044;SDS011;62389;51.412;5.436;2023-03-01T02:18:44;7.47;;;4.30;;
74044;SDS011;62389;51.412;5.436;2023-03-01T02:23:53;6.55;;;4.05;;
74044;SDS011;62389;51.412;5.436;2023-03-01T02:26:22;8.55;;;4.75;;
74044;SDS011;62389;51.412;5.436;2023-03-01T02:28:53;7.45;;;4.32;;
74044;SDS011;62389;51.412;5.436;2023-03-01T02:31:19;7.55;;;3.97;;
74044;SDS011;62389;51.412;5.436;2023-03-01T02:36:31;6.57;;;3.70;;
74044;SDS011;62389;51.412;5.436;2023-03-01T02:39:02;10.70;;;4.93;;
74044;SDS011;62389;51.412;5.436;2023-03-01T02:41:32;10.43;;;4.32;;
74044;SDS011;62389;51.412;5.436;2023-03-01T02:44:01;7.18;;;4.15;;
74044;SDS011;62389;51.412;5.436;2023-03-01T02:46:27;9.65;;;4.25;;
74044;SDS011;62389;51.412;5.436;2023-03-01T02:48:54;8.43;;;4.15;;
74044;SDS011;62389;51.412;5.436;2023-03-01T02:54:01;5.82;;;3.83;;
74044;SDS011;62389;51.412;5.436;2023-03-01T02:56:49;7.60;;;4.60;;
74044;SDS011;62389;51.412;5.436;2023-03-01T02:59:23;11.25;;;4.60;;
74044;SDS011;62389;51.412;5.436;2023-03-01T03:01:52;8.00;;;4.40;;
74044;SDS011;62389;51.412;5.436;2023-03-01T03:04:18;12.18;;;4.60;;
74044;SDS011;62389;51.412;5.436;2023-03-01T03:06:45;10.70;;;4.57;;
74044;SDS011;62389;51.412;5.436;2023-03-01T03:09:15;8.65;;;4.75;;
74044;SDS011;62389;51.412;5.436;2023-03-01T03:11:42;7.55;;;4.75;;
74044;SDS011;62389;51.412;5.436;2023-03-01T03:14:08;10.65;;;4.88;;
74044;SDS011;62389;51.412;5.436;2023-03-01T03:16:47;9.18;;;4.75;;
74044;SDS011;62389;51.412;5.436;2023-03-01T03:19:15;8.63;;;5.03;;
74044;SDS011;62389;51.412;5.436;2023-03-01T03:21:41;7.60;;;4.18;;
74044;SDS011;62389;51.412;5.436;2023-03-01T03:24:07;7.53;;;4.40;;
74044;SDS011;62389;51.412;5.436;2023-03-01T03:26:33;11.98;;;5.15;;
74044;SDS011;62389;51.412;5.436;2023-03-01T03:28:58;9.73;;;4.40;;
74044;SDS011;62389;51.412;5.436;2023-03-01T03:31:23;8.57;;;4.45;;
74044;SDS011;62389;51.412;5.436;2023-03-01T03:33:50;10.02;;;5.07;;
74044;SDS011;62389;51.412;5.436;2023-03-01T03:36:16;8.57;;;4.63;;
74044;SDS011;62389;51.412;5.436;2023-03-01T03:38:43;9.82;;;5.00;;
74044;SDS011;62389;51.412;5.436;2023-03-01T03:41:10;9.70;;;4.88;;
74044;SDS011;62389;51.412;5.436;2023-03-01T03:43:37;8.18;;;4.60;;
74044;SDS011;62389;51.412;5.436;2023-03-01T03:46:04;9.63;;;4.65;;
74044;SDS011;62389;51.412;5.436;2023-03-01T03:48:31;11.57;;;5.25;;
74044;SDS011;62389;51.412;5.436;2023-03-01T03:50:58;10.10;;;4.75;;
74044;SDS011;62389;51.412;5.436;2023-03-01T03:53:24;7.68;;;4.70;;
74044;SDS011;62389;51.412;5.436;2023-03-01T03:55:51;10.18;;;4.78;;
74044;SDS011;62389;51.412;5.436;2023-03-01T03:58:17;9.18;;;4.90;;
74044;SDS011;62389;51.412;5.436;2023-03-01T04:00:46;9.70;;;4.82;;
74044;SDS011;62389;51.412;5.436;2023-03-01T04:03:13;8.55;;;5.22;;
74044;SDS011;62389;51.412;5.436;2023-03-01T04:05:40;9.18;;;5.13;;
74044;SDS011;62389;51.412;5.436;2023-03-01T04:08:07;9.88;;;5.55;;
74044;SDS011;62389;51.412;5.436;2023-03-01T04:10:37;9.90;;;4.20;;
74044;SDS011;62389;51.412;5.436;2023-03-01T04:13:12;8.52;;;4.40;;
74044;SDS011;62389;51.412;5.436;2023-03-01T04:15:44;7.10;;;4.18;;
74044;SDS011;62389;51.412;5.436;2023-03-01T04:18:11;8.30;;;4.32;;
74044;SDS011;62389;51.412;5.436;2023-03-01T04:20:38;8.60;;;5.00;;
74044;SDS011;62389;51.412;5.436;2023-03-01T04:23:05;9.88;;;4.75;;
74044;SDS011;62389;51.412;5.436;2023-03-01T04:28:24;8.35;;;4.53;;
74044;SDS011;62389;51.412;5.436;2023-03-01T04:30:50;9.05;;;5.20;;
74044;SDS011;62389;51.412;5.436;2023-03-01T04:33:16;7.70;;;4.70;;
74044;SDS011;62389;51.412;5.436;2023-03-01T04:35:42;7.85;;;4.88;;
74044;SDS011;62389;51.412;5.436;2023-03-01T04:38:08;7.97;;;4.85;;
74044;SDS011;62389;51.412;5.436;2023-03-01T04:40:33;8.52;;;4.90;;
74044;SDS011;62389;51.412;5.436;2023-03-01T04:42:59;10.85;;;5.53;;
74044;SDS011;62389;51.412;5.436;2023-03-01T04:45:25;10.30;;;5.38;;
74044;SDS011;62389;51.412;5.436;2023-03-01T04:47:51;9.48;;;4.82;;
74044;SDS011;62389;51.412;5.436;2023-03-01T04:50:17;8.75;;;4.43;;
74044;SDS011;62389;51.412;5.436;2023-03-01T04:52:48;10.98;;;5.47;;
74044;SDS011;62389;51.412;5.436;2023-03-01T04:55:13;7.90;;;5.05;;
74044;SDS011;62389;51.412;5.436;2023-03-01T04:57:39;9.23;;;5.03;;
74044;SDS011;62389;51.412;5.436;2023-03-01T05:00:05;8.90;;;5.00;;
74044;SDS011;62389;51.412;5.436;2023-03-01T05:02:46;10.50;;;5.10;;
74044;SDS011;62389;51.412;5.436;2023-03-01T05:05:13;9.25;;;5.03;;
74044;SDS011;62389;51.412;5.436;2023-03-01T05:07:39;9.80;;;4.80;;
74044;SDS011;62389;51.412;5.436;2023-03-01T05:10:04;8.57;;;5.13;;
74044;SDS011;62389;51.412;5.436;2023-03-01T05:12:30;11.57;;;5.20;;
74044;SDS011;62389;51.412;5.436;2023-03-01T05:14:55;8.70;;;5.10;;
74044;SDS011;62389;51.412;5.436;2023-03-01T05:17:21;8.00;;;5.15;;
74044;SDS011;62389;51.412;5.436;2023-03-01T05:19:46;10.02;;;5.55;;
74044;SDS011;62389;51.412;5.436;2023-03-01T05:22:11;9.82;;;5.45;;
74044;SDS011;62389;51.412;5.436;2023-03-01T05:24:37;9.30;;;4.82;;
74044;SDS011;62389;51.412;5.436;2023-03-01T05:27:03;7.75;;;4.55;;
74044;SDS011;62389;51.412;5.436;2023-03-01T05:29:29;11.02;;;5.07;;
74044;SDS011;62389;51.412;5.436;2023-03-01T05:31:59;10.10;;;5.70;;
74044;SDS011;62389;51.412;5.436;2023-03-01T05:34:27;8.77;;;5.22;;
74044;SDS011;62389;51.412;5.436;2023-03-01T05:36:54;9.20;;;5.53;;
74044;SDS011;62389;51.412;5.436;2023-03-01T05:39:20;10.27;;;4.65;;
74044;SDS011;62389;51.412;5.436;2023-03-01T05:41:47;9.95;;;4.85;;
74044;SDS011;62389;51.412;5.436;2023-03-01T05:44:13;8.57;;;5.07;;
74044;SDS011;62389;51.412;5.436;2023-03-01T05:46:38;10.45;;;5.38;;
74044;SDS011;62389;51.412;5.436;2023-03-01T05:49:04;8.05;;;4.78;;
74044;SDS011;62389;51.412;5.436;2023-03-01T05:51:30;8.52;;;5.13;;
74044;SDS011;62389;51.412;5.436;2023-03-01T05:53:55;10.73;;;5.20;;
74044;SDS011;62389;51.412;5.436;2023-03-01T05:56:21;10.30;;;6.05;;
74044;SDS011;62389;51.412;5.436;2023-03-01T05:58:47;8.75;;;4.78;;
74044;SDS011;62389;51.412;5.436;2023-03-01T06:01:14;10.15;;;5.10;;
74044;SDS011;62389;51.412;5.436;2023-03-01T06:03:39;9.25;;;4.95;;
74044;SDS011;62389;51.412;5.436;2023-03-01T06:06:05;8.57;;;5.10;;
74044;SDS011;62389;51.412;5.436;2023-03-01T06:08:30;10.48;;;5.40;;
74044;SDS011;62389;51.412;5.436;2023-03-01T06:10:55;9.07;;;5.15;;
74044;SDS011;62389;51.412;5.436;2023-03-01T06:13:21;11.05;;;5.35;;
74044;SDS011;62389;51.412;5.436;2023-03-01T06:15:48;9.35;;;4.97;;
74044;SDS011;62389;51.412;5.436;2023-03-01T06:18:13;15.27;;;5.47;;
74044;SDS011;62389;51.412;5.436;2023-03-01T06:20:39;9.57;;;5.93;;
74044;SDS011;62389;51.412;5.436;2023-03-01T06:23:04;10.88;;;5.32;;
74044;SDS011;62389;51.412;5.436;2023-03-01T06:25:29;9.02;;;4.95;;
74044;SDS011;62389;51.412;5.436;2023-03-01T06:27:55;8.30;;;5.25;;
74044;SDS011;62389;51.412;5.436;2023-03-01T06:30:21;8.93;;;4.68;;
74044;SDS011;62389;51.412;5.436;2023-03-01T06:32:49;9.25;;;5.05;;
74044;SDS011;62389;51.412;5.436;2023-03-01T06:35:15;12.65;;;6.13;;
74044;SDS011;62389;51.412;5.436;2023-03-01T06:37:45;10.90;;;5.82;;
74044;SDS011;62389;51.412;5.436;2023-03-01T06:40:11;9.70;;;5.28;;
74044;SDS011;62389;51.412;5.436;2023-03-01T06:42:39;11.57;;;5.72;;
74044;SDS011;62389;51.412;5.436;2023-03-01T06:45:06;11.18;;;5.10;;
74044;SDS011;62389;51.412;5.436;2023-03-01T06:47:33;9.90;;;5.18;;
74044;SDS011;62389;51.412;5.436;2023-03-01T06:50:02;8.93;;;4.63;;
74044;SDS011;62389;51.412;5.436;2023-03-01T06:52:28;10.68;;;5.68;;
74044;SDS011;62389;51.412;5.436;2023-03-01T06:54:54;11.00;;;5.40;;
74044;SDS011;62389;51.412;5.436;2023-03-01T06:57:20;12.77;;;5.45;;
74044;SDS011;62389;51.412;5.436;2023-03-01T06:59:46;9.32;;;5.30;;
74044;SDS011;62389;51.412;5.436;2023-03-01T07:02:12;10.23;;;6.32;;
74044;SDS011;62389;51.412;5.436;2023-03-01T07:04:38;11.85;;;5.90;;
74044;SDS011;62389;51.412;5.436;2023-03-01T07:07:04;12.10;;;5.93;;
74044;SDS011;62389;51.412;5.436;2023-03-01T07:09:30;11.68;;;5.53;;
74044;SDS011;62389;51.412;5.436;2023-03-01T07:11:56;10.55;;;6.10;;
74044;SDS011;62389;51.412;5.436;2023-03-01T07:14:21;8.95;;;5.72;;
74044;SDS011;62389;51.412;5.436;2023-03-01T07:16:49;9.98;;;5.38;;
74044;SDS011;62389;51.412;5.436;2023-03-01T07:19:14;9.93;;;6.22;;
74044;SDS011;62389;51.412;5.436;2023-03-01T07:21:40;14.27;;;5.85;;
74044;SDS011;62389;51.412;5.436;2023-03-01T07:24:06;9.80;;;5.43;;
74044;SDS011;62389;51.412;5.436;2023-03-01T07:26:32;16.15;;;6.65;;
74044;SDS011;62389;51.412;5.436;2023-03-01T07:29:01;11.15;;;5.78;;
74044;SDS011;62389;51.412;5.436;2023-03-01T07:31:28;12.40;;;6.22;;
74044;SDS011;62389;51.412;5.436;2023-03-01T07:33:54;9.25;;;5.80;;
74044;SDS011;62389;51.412;5.436;2023-03-01T07:36:20;12.57;;;6.00;;
74044;SDS011;62389;51.412;5.436;2023-03-01T07:38:46;11.15;;;6.13;;
74044;SDS011;62389;51.412;5.436;2023-03-01T07:41:11;12.60;;;6.50;;
74044;SDS011;62389;51.412;5.436;2023-03-01T07:43:37;13.80;;;5.47;;
74044;SDS011;62389;51.412;5.436;2023-03-01T07:46:02;11.07;;;6.35;;
74044;SDS011;62389;51.412;5.436;2023-03-01T07:48:29;15.60;;;5.65;;
74044;SDS011;62389;51.412;5.436;2023-03-01T07:51:02;11.55;;;5.78;;
74044;SDS011;62389;51.412;5.436;2023-03-01T07:53:29;8.88;;;5.57;;
74044;SDS011;62389;51.412;5.436;2023-03-01T07:58:27;11.50;;;5.68;;
74044;SDS011;62389;51.412;5.436;2023-03-01T08:00:53;9.95;;;5.63;;
74044;SDS011;62389;51.412;5.436;2023-03-01T08:03:18;10.38;;;4.95;;
74044;SDS011;62389;51.412;5.436;2023-03-01T08:05:43;9.35;;;5.35;;
74044;SDS011;62389;51.412;5.436;2023-03-01T08:08:09;8.95;;;5.25;;
74044;SDS011;62389;51.412;5.436;2023-03-01T08:10:34;8.48;;;5.00;;
74044;SDS011;62389;51.412;5.436;2023-03-01T08:13:01;11.48;;;5.53;;
74044;SDS011;62389;51.412;5.436;2023-03-01T08:15:27;9.05;;;5.60;;
74044;SDS011;62389;51.412;5.436;2023-03-01T08:17:52;9.00;;;5.43;;
74044;SDS011;62389;51.412;5.436;2023-03-01T08:20:18;9.52;;;5.28;;
74044;SDS011;62389;51.412;5.436;2023-03-01T08:22:43;10.02;;;4.95;;
74044;SDS011;62389;51.412;5.436;2023-03-01T08:25:09;10.30;;;5.28;;
74044;SDS011;62389;51.412;5.436;2023-03-01T08:27:34;8.55;;;4.80;;
74044;SDS011;62389;51.412;5.436;2023-03-01T08:30:00;8.98;;;5.32;;
74044;SDS011;62389;51.412;5.436;2023-03-01T08:32:25;7.95;;;5.10;;
74044;SDS011;62389;51.412;5.436;2023-03-01T08:34:51;8.80;;;4.78;;
74044;SDS011;62389;51.412;5.436;2023-03-01T08:37:16;9.25;;;5.00;;
74044;SDS011;62389;51.412;5.436;2023-03-01T08:39:41;7.88;;;5.22;;
74044;SDS011;62389;51.412;5.436;2023-03-01T08:42:07;10.90;;;5.25;;
74044;SDS011;62389;51.412;5.436;2023-03-01T08:44:32;7.82;;;4.70;;
74044;SDS011;62389;51.412;5.436;2023-03-01T08:46:58;8.25;;;4.50;;
74044;SDS011;62389;51.412;5.436;2023-03-01T08:49:24;7.15;;;4.68;;
74044;SDS011;62389;51.412;5.436;2023-03-01T08:51:50;7.93;;;4.55;;
74044;SDS011;62389;51.412;5.436;2023-03-01T08:54:17;7.78;;;4.40;;
74044;SDS011;62389;51.412;5.436;2023-03-01T08:56:44;8.73;;;5.10;;
74044;SDS011;62389;51.412;5.436;2023-03-01T08:59:10;10.30;;;4.57;;
74044;SDS011;62389;51.412;5.436;2023-03-01T09:04:02;7.65;;;5.07;;
74044;SDS011;62389;51.412;5.436;2023-03-01T09:06:29;8.05;;;4.57;;
74044;SDS011;62389;51.412;5.436;2023-03-01T09:08:56;7.07;;;4.45;;
74044;SDS011;62389;51.412;5.436;2023-03-01T09:11:21;9.40;;;4.95;;
74044;SDS011;62389;51.412;5.436;2023-03-01T09:13:47;7.57;;;5.10;;
74044;SDS011;62389;51.412;5.436;2023-03-01T09:16:15;7.47;;;4.40;;
74044;SDS011;62389;51.412;5.436;2023-03-01T09:18:42;8.57;;;4.80;;
74044;SDS011;62389;51.412;5.436;2023-03-01T09:23:36;7.78;;;4.95;;
74044;SDS011;62389;51.412;5.436;2023-03-01T09:26:04;7.07;;;5.00;;
74044;SDS011;62389;51.412;5.436;2023-03-01T09:28:30;8.05;;;4.68;;
74044;SDS011;62389;51.412;5.436;2023-03-01T09:30:58;10.68;;;5.03;;
74044;SDS011;62389;51.412;5.436;2023-03-01T09:33:24;8.13;;;5.28;;
74044;SDS011;62389;51.412;5.436;2023-03-01T09:35:55;8.10;;;5.28;;
74044;SDS011;62389;51.412;5.436;2023-03-01T09:38:28;7.25;;;4.75;;
74044;SDS011;62389;51.412;5.436;2023-03-01T09:40:54;8.13;;;6.10;;
74044;SDS011;62389;51.412;5.436;2023-03-01T09:43:23;8.25;;;4.97;;
74044;SDS011;62389;51.412;5.436;2023-03-01T09:45:59;7.93;;;5.30;;
74044;SDS011;62389;51.412;5.436;2023-03-01T09:48:31;7.47;;;5.03;;
74044;SDS011;62389;51.412;5.436;2023-03-01T09:51:07;9.40;;;5.43;;
74044;SDS011;62389;51.412;5.436;2023-03-01T09:53:37;8.43;;;5.90;;
74044;SDS011;62389;51.412;5.436;2023-03-01T09:56:12;9.90;;;5.10;;
74044;SDS011;62389;51.412;5.436;2023-03-01T09:58:51;8.63;;;5.45;;
74044;SDS011;62389;51.412;5.436;2023-03-01T10:01:29;9.18;;;5.80;;
74044;SDS011;62389;51.412;5.436;2023-03-01T10:04:24;8.07;;;5.95;;
74044;SDS011;62389;51.412;5.436;2023-03-01T10:09:48;8.13;;;5.78;;
74044;SDS011;62389;51.412;5.436;2023-03-01T10:12:18;11.95;;;6.03;;
74044;SDS011;62389;51.412;5.436;2023-03-01T10:14:59;9.93;;;5.95;;
74044;SDS011;62389;51.412;5.436;2023-03-01T10:18:00;9.85;;;6.10;;
74044;SDS011;62389;51.412;5.436;2023-03-01T10:23:24;9.10;;;5.90;;
74044;SDS011;62389;51.412;5.436;2023-03-01T10:31:03;9.63;;;5.55;;
74044;SDS011;62389;51.412;5.436;2023-03-01T10:33:30;10.27;;;5.55;;
74044;SDS011;62389;51.412;5.436;2023-03-01T10:35:58;12.40;;;6.25;;
74044;SDS011;62389;51.412;5.436;2023-03-01T10:38:23;10.02;;;6.22;;
74044;SDS011;62389;51.412;5.436;2023-03-01T10:40:59;14.27;;;5.82;;
74044;SDS011;62389;51.412;5.436;2023-03-01T10:46:22;10.45;;;5.80;;
74044;SDS011;62389;51.412;5.436;2023-03-01T10:51:42;8.35;;;5.53;;
74044;SDS011;62389;51.412;5.436;2023-03-01T10:54:16;9.10;;;5.68;;
74044;SDS011;62389;51.412;5.436;2023-03-01T10:56:49;10.30;;;5.95;;
74044;SDS011;62389;51.412;5.436;2023-03-01T11:02:16;8.77;;;5.78;;
74044;SDS011;62389;51.412;5.436;2023-03-01T11:05:01;9.07;;;5.38;;
74044;SDS011;62389;51.412;5.436;2023-03-01T11:07:32;10.43;;;6.38;;
74044;SDS011;62389;51.412;5.436;2023-03-01T11:10:15;11.68;;;6.00;;
74044;SDS011;62389;51.412;5.436;2023-03-01T11:12:42;8.43;;;5.60;;
74044;SDS011;62389;51.412;5.436;2023-03-01T11:15:08;10.88;;;6.53;;
74044;SDS011;62389;51.412;5.436;2023-03-01T11:17:47;9.20;;;5.63;;
74044;SDS011;62389;51.412;5.436;2023-03-01T11:22:40;9.45;;;5.40;;
74044;SDS011;62389;51.412;5.436;2023-03-01T11:25:13;10.63;;;5.95;;
74044;SDS011;62389;51.412;5.436;2023-03-01T11:27:40;9.50;;;5.03;;
74044;SDS011;62389;51.412;5.436;2023-03-01T11:32:45;11.45;;;5.95;;
74044;SDS011;62389;51.412;5.436;2023-03-01T11:35:18;11.20;;;6.07;;
74044;SDS011;62389;51.412;5.436;2023-03-01T11:40:55;11.43;;;6.07;;
74044;SDS011;62389;51.412;5.436;2023-03-01T11:43:29;9.90;;;5.18;;
74044;SDS011;62389;51.412;5.436;2023-03-01T11:49:01;11.93;;;5.35;;
74044;SDS011;62389;51.412;5.436;2023-03-01T11:56:50;9.33;;;5.80;;
74044;SDS011;62389;51.412;5.436;2023-03-01T12:04:54;8.38;;;4.78;;
74044;SDS011;62389;51.412;5.436;2023-03-01T12:07:30;11.27;;;5.22;;
74044;SDS011;62389;51.412;5.436;2023-03-01T12:31:57;9.88;;;5.07;;
74044;SDS011;62389;51.412;5.436;2023-03-01T12:50:21;9.02;;;4.80;;
74044;SDS011;62389;51.412;5.436;2023-03-01T12:52:50;9.82;;;5.35;;
74044;SDS011;62389;51.412;5.436;2023-03-01T13:09:04;7.68;;;4.85;;
74044;SDS011;62389;51.412;5.436;2023-03-01T13:11:41;8.77;;;4.90;;
74044;SDS011;62389;51.412;5.436;2023-03-01T13:16:45;7.28;;;4.53;;
74044;SDS011;62389;51.412;5.436;2023-03-01T13:19:17;9.30;;;5.40;;
74044;SDS011;62389;51.412;5.436;2023-03-01T13:21:45;8.95;;;4.90;;
74044;SDS011;62389;51.412;5.436;2023-03-01T13:32:23;10.40;;;4.72;;
74044;SDS011;62389;51.412;5.436;2023-03-01T13:34:51;8.18;;;4.57;;
74044;SDS011;62389;51.412;5.436;2023-03-01T13:37:23;7.60;;;4.57;;
74044;SDS011;62389;51.412;5.436;2023-03-01T13:39:51;9.07;;;4.63;;
74044;SDS011;62389;51.412;5.436;2023-03-01T13:42:31;8.32;;;4.65;;
74044;SDS011;62389;51.412;5.436;2023-03-01T13:45:05;8.15;;;4.45;;
74044;SDS011;62389;51.412;5.436;2023-03-01T13:48:20;9.25;;;4.43;;
74044;SDS011;62389;51.412;5.436;2023-03-01T13:50:53;8.93;;;4.13;;
74044;SDS011;62389;51.412;5.436;2023-03-01T13:53:23;7.85;;;4.20;;
74044;SDS011;62389;51.412;5.436;2023-03-01T13:55:52;11.23;;;4.25;;
74044;SDS011;62389;51.412;5.436;2023-03-01T13:58:26;7.43;;;4.38;;
74044;SDS011;62389;51.412;5.436;2023-03-01T14:00:59;6.97;;;4.70;;
74044;SDS011;62389;51.412;5.436;2023-03-01T14:03:25;8.02;;;4.80;;
74044;SDS011;62389;51.412;5.436;2023-03-01T14:08:26;7.75;;;4.45;;
74044;SDS011;62389;51.412;5.436;2023-03-01T14:11:07;6.15;;;3.72;;
74044;SDS011;62389;51.412;5.436;2023-03-01T14:16:32;7.00;;;4.22;;
74044;SDS011;62389;51.412;5.436;2023-03-01T14:21:33;7.17;;;4.23;;
74044;SDS011;62389;51.412;5.436;2023-03-01T14:24:00;9.52;;;5.20;;
74044;SDS011;62389;51.412;5.436;2023-03-01T14:26:25;7.75;;;4.38;;
74044;SDS011;62389;51.412;5.436;2023-03-01T14:28:51;7.95;;;4.55;;
74044;SDS011;62389;51.412;5.436;2023-03-01T14:31:34;7.43;;;4.47;;
74044;SDS011;62389;51.412;5.436;2023-03-01T14:34:01;7.45;;;4.32;;
74044;SDS011;62389;51.412;5.436;2023-03-01T14:36:29;7.97;;;4.68;;
74044;SDS011;62389;51.412;5.436;2023-03-01T14:38:56;7.50;;;4.68;;
74044;SDS011;62389;51.412;5.436;2023-03-01T14:41:30;8.82;;;4.55;;
74044;SDS011;62389;51.412;5.436;2023-03-01T14:44:03;7.75;;;4.68;;
74044;SDS011;62389;51.412;5.436;2023-03-01T14:46:35;9.43;;;4.53;;
74044;SDS011;62389;51.412;5.436;2023-03-01T14:49:05;8.48;;;4.65;;
74044;SDS011;62389;51.412;5.436;2023-03-01T14:51:35;8.13;;;4.82;;
74044;SDS011;62389;51.412;5.436;2023-03-01T14:54:02;8.70;;;4.60;;
74044;SDS011;62389;51.412;5.436;2023-03-01T14:56:45;8.02;;;4.28;;
74044;SDS011;62389;51.412;5.436;2023-03-01T14:59:12;9.43;;;5.07;;
74044;SDS011;62389;51.412;5.436;2023-03-01T15:01:39;11.60;;;4.13;;
74044;SDS011;62389;51.412;5.436;2023-03-01T15:04:06;10.00;;;4.72;;
74044;SDS011;62389;51.412;5.436;2023-03-01T15:06:36;6.97;;;4.40;;
74044;SDS011;62389;51.412;5.436;2023-03-01T15:09:02;9.52;;;4.32;;
74044;SDS011;62389;51.412;5.436;2023-03-01T15:11:32;8.80;;;4.32;;
74044;SDS011;62389;51.412;5.436;2023-03-01T15:13:58;6.88;;;4.18;;
74044;SDS011;62389;51.412;5.436;2023-03-01T15:16:25;7.60;;;3.88;;
74044;SDS011;62389;51.412;5.436;2023-03-01T15:19:00;7.03;;;4.10;;
74044;SDS011;62389;51.412;5.436;2023-03-01T15:21:31;9.93;;;4.72;;
74044;SDS011;62389;51.412;5.436;2023-03-01T15:24:16;9.68;;;4.88;;
74044;SDS011;62389;51.412;5.436;2023-03-01T15:26:46;7.60;;;4.72;;
74044;SDS011;62389;51.412;5.436;2023-03-01T15:29:20;9.40;;;4.75;;
74044;SDS011;62389;51.412;5.436;2023-03-01T15:34:55;8.27;;;4.20;;
74044;SDS011;62389;51.412;5.436;2023-03-01T15:40:24;9.45;;;4.43;;
74044;SDS011;62389;51.412;5.436;2023-03-01T15:42:58;9.98;;;4.97;;
74044;SDS011;62389;51.412;5.436;2023-03-01T15:45:27;9.60;;;4.80;;
74044;SDS011;62389;51.412;5.436;2023-03-01T15:47:57;9.55;;;4.95;;
74044;SDS011;62389;51.412;5.436;2023-03-01T15:52:55;9.55;;;4.60;;
74044;SDS011;62389;51.412;5.436;2023-03-01T15:55:24;10.45;;;4.78;;
74044;SDS011;62389;51.412;5.436;2023-03-01T15:57:58;8.95;;;4.55;;
74044;SDS011;62389;51.412;5.436;2023-03-01T16:00:27;26.77;;;6.07;;
74044;SDS011;62389;51.412;5.436;2023-03-01T16:02:54;9.02;;;5.30;;
74044;SDS011;62389;51.412;5.436;2023-03-01T16:05:21;8.13;;;5.00;;
74044;SDS011;62389;51.412;5.436;2023-03-01T16:07:48;9.93;;;4.45;;
74044;SDS011;62389;51.412;5.436;2023-03-01T16:10:14;10.23;;;4.82;;
74044;SDS011;62389;51.412;5.436;2023-03-01T16:12:40;8.15;;;5.10;;
74044;SDS011;62389;51.412;5.436;2023-03-01T16:15:11;8.77;;;5.18;;
74044;SDS011;62389;51.412;5.436;2023-03-01T16:17:41;9.50;;;4.40;;
74044;SDS011;62389;51.412;5.436;2023-03-01T16:20:06;9.75;;;5.40;;
74044;SDS011;62389;51.412;5.436;2023-03-01T16:22:32;12.10;;;5.20;;
74044;SDS011;62389;51.412;5.436;2023-03-01T16:24:58;7.18;;;4.28;;
74044;SDS011;62389;51.412;5.436;2023-03-01T16:27:23;11.35;;;4.80;;
74044;SDS011;62389;51.412;5.436;2023-03-01T16:29:48;11.98;;;5.20;;
74044;SDS011;62389;51.412;5.436;2023-03-01T16:32:14;9.45;;;4.70;;
74044;SDS011;62389;51.412;5.436;2023-03-01T16:34:39;10.63;;;5.18;;
74044;SDS011;62389;51.412;5.436;2023-03-01T16:37:04;9.25;;;5.45;;
74044;SDS011;62389;51.412;5.436;2023-03-01T16:39:30;9.32;;;4.82;;
74044;SDS011;62389;51.412;5.436;2023-03-01T16:41:55;10.23;;;4.72;;
74044;SDS011;62389;51.412;5.436;2023-03-01T16:44:21;10.63;;;5.70;;
74044;SDS011;62389;51.412;5.436;2023-03-01T16:46:46;10.90;;;5.20;;
74044;SDS011;62389;51.412;5.436;2023-03-01T16:49:11;10.40;;;4.95;;
74044;SDS011;62389;51.412;5.436;2023-03-01T16:51:37;12.35;;;5.57;;
74044;SDS011;62389;51.412;5.436;2023-03-01T16:54:02;11.23;;;5.35;;
74044;SDS011;62389;51.412;5.436;2023-03-01T16:56:29;8.88;;;4.95;;
74044;SDS011;62389;51.412;5.436;2023-03-01T16:58:56;13.40;;;5.07;;
74044;SDS011;62389;51.412;5.436;2023-03-01T17:01:21;11.90;;;4.95;;
74044;SDS011;62389;51.412;5.436;2023-03-01T17:03:51;9.63;;;5.38;;
74044;SDS011;62389;51.412;5.436;2023-03-01T17:06:18;11.80;;;5.43;;
74044;SDS011;62389;51.412;5.436;2023-03-01T17:08:49;9.18;;;5.15;;
74044;SDS011;62389;51.412;5.436;2023-03-01T17:11:16;8.63;;;4.85;;